San Marcos Station Data

Red Flag Warning: No
Fire Weather Zone: 243
SDGE Region: North East
Lat/Lon: 33.129/-117.192

Observations

Time Wind Speed/Gust Temp(F) RH Fuel Moist Fuel Temp(F) Dewpt(F) Tmax(F) Tmin(F) Accum Precip 10-min Precip SL Press(mb)
6/27 5:00pm 267 5 G 8 77° 54% - - 59° 86.6° 60.2° - - -
6/27 4:50pm 274 6 G 9 78° 52% - - 59° 86.6° 60.2° - - -
6/27 4:40pm 264 5 G 8 78° 53% - - 60° 86.6° 60.2° - - -
6/27 4:30pm 258 4 G 11 79° 53% - - 60° 86.6° 60.2° - - -
6/27 4:20pm 253 4 G 10 79° 53% - - 60° 86.6° 60.2° - - -
6/27 4:10pm 252 5 G 10 80° 50% - - 60° 86.6° 60.2° - - -
6/27 4:00pm 234 4 G 10 80° 48% - - 58° 86.6° 60.2° - - -
6/27 3:50pm 224 6 G 11 80° 47% - - 58° 86.6° 60.2° - - -
6/27 3:40pm 224 5 G 11 80° 45% - - 57° 86.6° 60.2° - - -
6/27 3:30pm 222 6 G 12 80° 45% - - 57° 86.6° 60.2° - - -
6/27 3:20pm 226 5 G 11 80° 47% - - 58° 86.6° 60.2° - - -
6/27 3:10pm 217 5 G 13 80° 47% - - 58° 86.6° 60.2° - - -
6/27 3:00pm 229 5 G 11 80° 47% - - 58° 86.6° 60.2° - - -
6/27 2:50pm 228 5 G 10 80° 47% - - 58° 86.6° 60.2° - - -
6/27 2:40pm 228 6 G 13 80° 47% - - 58° 86.6° 60.2° - - -
6/27 2:30pm 228 6 G 11 81° 49% - - 60° 86.6° 60.2° - - -
6/27 2:20pm 249 5 G 10 81° 49% - - 60° 86.6° 60.2° - - -
6/27 2:10pm 254 5 G 12 81° 48% - - 60° 86.6° 60.2° - - -
6/27 2:00pm 252 5 G 10 81° 48% - - 60° 86.6° 60.2° - - -
6/27 1:50pm 236 5 G 13 82° 48% - - 60° 86.6° 60.2° - - -
6/27 1:40pm 235 5 G 11 82° 47% - - 60° 86.6° 60.2° - - -
6/27 1:30pm 226 6 G 13 82° 48% - - 61° 86.6° 60.2° - - -
6/27 1:20pm 214 8 G 14 83° 47% - - 60° 86.6° 60.2° - - -
6/27 1:10pm 225 6 G 12 84° 46% - - 61° 86.6° 60.2° - - -
6/27 1:00pm 263 6 G 12 84° 46% - - 61° 86.6° 60.2° - - -
6/27 12:50pm 266 6 G 13 84° 46% - - 61° 86.6° 60.2° - - -
6/27 12:40pm 271 7 G 13 84° 46% - - 61° 86.6° 60.2° - - -
6/27 12:30pm 270 7 G 12 84° 47% - - 61° 86.6° 60.2° - - -
6/27 12:20pm 264 6 G 11 83° 49% - - 62° 86.6° 60.2° - - -
6/27 12:10pm 264 6 G 11 83° 49% - - 62° 86.6° 60.2° - - -
6/27 12:00pm 267 6 G 12 82° 50% - - 62° 86.6° 60.2° - - -
6/27 11:50am 260 6 G 10 82° 50% - - 61° 86.6° 60.2° - - -
6/27 11:40am 265 6 G 12 83° 48% - - 61° 86.6° 60.2° - - -
6/27 11:30am 271 7 G 13 84° 47% - - 61° 86.6° 60.2° - - -
6/27 11:20am 269 6 G 12 84° 49% - - 62° 86.6° 60.2° - - -
6/27 11:10am 264 5 G 10 84° 47% - - 62° 86.6° 60.2° - - -
6/27 11:00am 250 4 G 8 86° 42% - - 60° 86.6° 60.2° - - -
6/27 10:50am 261 3 G 5 85° 40% - - 58° 85.9° 60.2° - - -
6/27 10:40am 264 3 G 7 85° 40% - - 58° 85.8° 60.2° - - -
6/27 10:30am 284 3 G 6 85° 39% - - 57° 85.5° 60.2° - - -
6/27 10:20am 260 3 G 7 84° 38% - - 56° 85° 60.2° - - -
6/27 10:10am 264 2 G 4 84° 34% - - 52° 84.6° 60.2° - - -
6/27 10:00am 278 3 G 5 83° 36% - - 53° 83.8° 60.2° - - -
6/27 9:50am 264 2 G 5 82° 37% - - 53° 82.6° 60.2° - - -
6/27 9:40am 269 3 G 5 81° 38% - - 53° 81.8° 60.2° - - -
6/27 9:30am 278 3 G 5 81° 41% - - 55° 81.8° 60.2° - - -
6/27 9:20am 276 3 G 5 81° 42% - - 55° 81.8° 60.2° - - -
6/27 9:10am 280 3 G 6 81° 37% - - 52° 81.4° 60.2° - - -
6/27 9:00am 264 2 G 4 81° 33% - - 49° 81.4° 60.2° - - -
6/27 8:50am 231 2 G 4 80° 32% - - 48° 81.1° 60.2° - - -
6/27 8:40am 228 1 G 3 79° 32% - - 47° 80.6° 60.2° - - -
6/27 8:30am 211 1 G 3 78° 33% - - 47° 79.3° 60.2° - - -
6/27 8:20am 220 1 G 3 77° 33% - - 46° 77.6° 60.2° - - -
6/27 8:10am 212 1 G 2 76° 37% - - 48° 77.6° 60.2° - - -
6/27 8:00am 263 1 G 2 75° 39% - - 48° 75.9° 60.2° - - -
6/27 7:50am 244 1 G 3 74° 42% - - 49° 75.2° 60.2° - - -
6/27 7:40am 246 1 G 2 72° 45% - - 50° 75.2° 60.2° - - -
6/27 7:30am 221 0 G 2 74° 43% - - 50° 75.2° 60.2° - - -
6/27 7:20am 0 0 G 0 72° 44% - - 49° 73.9° 60.2° - - -
6/27 7:10am 107 0 G 2 69° 48% - - 48° 70.3° 60.2° - - -
6/27 7:00am 64 1 G 2 68° 50% - - 48° 69.7° 60.2° - - -
6/27 6:50am 84 0 G 1 67° 48% - - 47° 69.7° 60.2° - - -
6/27 6:40am 138 1 G 2 64° 52% - - 46° 69.7° 60.2° - - -
6/27 6:30am 111 1 G 2 62° 55% - - 46° 69.7° 60.2° - - -
6/27 6:20am 243 0 G 1 62° 56% - - 46° 69.7° 60.2° - - -
6/27 6:10am 180 1 G 2 62° 56% - - 46° 69.7° 60.2° - - -
6/27 6:00am 134 1 G 2 61° 58% - - 46° 69.7° 60.2° - - -
6/27 5:50am 144 1 G 2 61° 57% - - 45° 69.7° 60.2° - - -
6/27 5:40am 179 0 G 1 61° 55% - - 45° 69.7° 60.5° - - -
6/27 5:30am 151 1 G 1 61° 56% - - 46° 69.7° 60.8° - - -
6/27 5:20am 189 0 G 2 62° 56% - - 46° 69.7° 60.8° - - -
6/27 5:10am 161 1 G 2 61° 56% - - 45° 69.7° 60.8° - - -
6/27 5:00am 193 1 G 2 61° 58% - - 47° 69.7° 61° - - -
6/27 4:50am 173 0 G 1 61° 59% - - 47° 69.7° 61° - - -
6/27 4:40am 65 1 G 2 62° 59% - - 48° 69.7° 61.4° - - -
6/27 4:30am 99 1 G 3 62° 55% - - 46° 69.7° 61.5° - - -
6/27 4:20am 97 1 G 2 62° 54% - - 46° 69.7° 61.7° - - -
6/27 4:10am 117 3 G 4 64° 51% - - 45° 69.7° 61.8° - - -
6/27 4:00am 125 2 G 3 63° 54% - - 46° 69.7° 61.8° - - -
6/27 3:50am 129 1 G 2 62° 57% - - 47° 69.7° 61.8° - - -
6/27 3:40am 301 0 G 1 63° 56% - - 47° 69.7° 61.9° - - -
6/27 3:30am 115 1 G 3 64° 52% - - 46° 69.7° 63.3° - - -
6/27 3:20am 121 2 G 2 64° 51% - - 45° 69.7° 63.3° - - -
6/27 3:10am 99 1 G 2 64° 52% - - 46° 69.7° 63.3° - - -
6/27 3:00am 92 1 G 2 65° 49% - - 45° 69.7° 63.8° - - -
6/27 2:50am 195 0 G 1 65° 46% - - 44° 69.7° 64.8° - - -
6/27 2:40am 160 1 G 2 65° 45% - - 44° 69.7° 64.8° - - -
6/27 2:30am 197 1 G 3 66° 47% - - 45° 69.7° 64.9° - - -
6/27 2:20am 190 1 G 2 66° 45% - - 44° 69.7° 64.9° - - -
6/27 2:10am 171 2 G 3 66° 46% - - 45° 69.7° 64.9° - - -
6/27 2:00am 186 1 G 3 65° 51% - - 47° 69.7° 64.9° - - -
6/27 1:50am 144 1 G 2 66° 54% - - 49° 69.7° 64.9° - - -
6/27 1:40am 60 1 G 4 66° 52% - - 48° 69.7° 65.5° - - -
6/27 1:30am 176 2 G 4 66° 53% - - 49° 69.7° 65.5° - - -
6/27 1:20am 85 1 G 2 66° 52% - - 48° 69.7° 65.6° - - -
6/27 1:10am 126 1 G 2 67° 49% - - 48° 69.7° 66.5° - - -
6/27 1:00am 133 1 G 2 67° 52% - - 49° 69.7° 66.5° - - -
6/27 12:50am 218 0 G 1 67° 52% - - 49° 69.7° 66.9° - - -
6/27 12:40am 224 0 G 1 68° 49% - - 48° 69.7° 67.5° - - -
6/27 12:30am 121 2 G 4 69° 48% - - 48° 69.7° 68.1° - - -
6/27 12:20am 132 1 G 3 69° 44% - - 47° 69.7° 68.5° - - -
6/27 12:10am 130 1 G 2 69° 44% - - 46° 69.7° 68.5° - - -
6/27 12:00am 105 0 G 2 69° 45% - - 47° 88.7° 62.1° - - -
6/26 11:50pm 324 0 G 2 69° 45% - - 47° 88.7° 62.1° - - -
6/26 11:40pm 160 0 G 2 71° 40% - - 45° 88.7° 62.1° - - -
6/26 11:30pm 175 1 G 2 71° 40% - - 45° 88.7° 62.1° - - -
6/26 11:20pm 179 2 G 3 71° 42% - - 47° 88.7° 62.1° - - -
6/26 11:10pm 201 1 G 2 71° 43% - - 48° 88.7° 62.1° - - -
6/26 11:00pm 210 2 G 3 72° 45% - - 49° 88.7° 62.1° - - -
6/26 10:50pm 283 0 G 1 72° 45% - - 50° 88.7° 62.1° - - -
6/26 10:40pm 103 1 G 3 73° 40% - - 48° 88.7° 62.1° - - -
6/26 10:30pm 107 2 G 3 73° 42% - - 49° 88.7° 62.1° - - -
6/26 10:20pm 92 1 G 2 72° 48% - - 52° 88.7° 62.1° - - -
6/26 10:10pm 89 1 G 2 73° 45% - - 51° 88.7° 62.1° - - -
6/26 10:00pm 107 2 G 3 74° 43% - - 50° 88.7° 62.1° - - -
6/26 9:50pm 40 1 G 2 74° 51% - - 55° 88.7° 62.1° - - -
6/26 9:40pm 214 1 G 2 75° 54% - - 57° 88.7° 62.1° - - -
6/26 9:30pm 201 1 G 2 75° 56% - - 58° 88.7° 62.1° - - -
6/26 9:20pm 213 1 G 3 75° 56% - - 59° 88.7° 62.1° - - -
6/26 9:10pm 250 1 G 3 76° 51% - - 57° 88.7° 62.1° - - -
6/26 9:00pm 241 1 G 3 78° 40% - - 52° 88.7° 62.1° - - -
6/26 8:50pm 232 2 G 4 78° 45% - - 55° 88.7° 62.1° - - -
6/26 8:40pm 245 1 G 2 78° 50% - - 58° 88.7° 62.1° - - -
6/26 8:30pm 226 2 G 3 78° 52% - - 59° 88.7° 62.1° - - -
6/26 8:20pm 239 2 G 3 80° 47% - - 58° 88.7° 62.1° - - -
6/26 8:10pm 253 2 G 3 81° 41% - - 55° 88.7° 62.1° - - -
6/26 8:00pm 268 2 G 3 82° 39% - - 55° 88.7° 62.1° - - -
6/26 7:50pm 249 2 G 3 83° 36% - - 53° 88.7° 62.1° - - -
6/26 7:40pm 232 2 G 3 83° 37% - - 54° 88.7° 62.1° - - -
6/26 7:30pm 229 1 G 3 84° 38% - - 55° 88.7° 62.1° - - -
6/26 7:20pm 265 2 G 3 84° 37% - - 55° 88.7° 62.1° - - -
6/26 7:10pm 299 2 G 4 84° 36% - - 55° 88.7° 62.1° - - -
6/26 7:00pm 260 1 G 4 84° 36% - - 54° 88.7° 62.1° - - -
6/26 6:50pm 250 2 G 5 85° 37% - - 55° 88.7° 62.1° - - -
6/26 6:40pm 238 2 G 5 85° 37% - - 56° 88.7° 62.1° - - -
6/26 6:30pm 234 2 G 5 85° 36% - - 55° 88.7° 62.1° - - -
6/26 6:20pm 233 3 G 6 85° 36% - - 55° 88.7° 62.1° - - -
6/26 6:10pm 251 3 G 6 86° 36% - - 55° 88.7° 62.1° - - -
6/26 6:00pm 287 3 G 6 86° 35% - - 54° 88.7° 62.1° - - -
6/26 5:50pm 246 3 G 6 85° 37% - - 56° 88.7° 62.1° - - -
6/26 5:40pm 259 3 G 8 86° 36% - - 55° 88.7° 62.1° - - -
6/26 5:30pm 270 4 G 7 86° 36% - - 56° 88.7° 62.1° - - -
6/26 5:20pm 259 4 G 6 86° 37% - - 57° 88.7° 62.1° - - -
6/26 5:10pm 251 4 G 7 87° 34% - - 55° 88.7° 62.1° - - -
6/26 5:00pm 265 4 G 8 88° 33% - - 55° 88.7° 62.1° - - -
6/26 4:50pm 292 6 G 9 87° 32% - - 54° 88.7° 62.1° - - -
6/26 4:40pm 292 5 G 8 88° 30% - - 52° 88.7° 62.1° - - -
6/26 4:30pm 280 4 G 8 88° 33% - - 55° 88.6° 62.1° - - -
6/26 4:20pm 281 5 G 9 87° 33% - - 55° 88.1° 62.1° - - -
6/26 4:10pm 285 5 G 9 87° 34% - - 55° 88.1° 62.1° - - -
6/26 4:00pm 268 5 G 10 87° 35% - - 56° 88.1° 62.1° - - -
6/26 3:50pm 258 5 G 8 87° 35% - - 56° 88.1° 62.1° - - -
6/26 3:40pm 278 6 G 10 87° 34% - - 55° 88.1° 62.1° - - -
6/26 3:30pm 270 5 G 10 87° 34% - - 56° 88.1° 62.1° - - -
6/26 3:20pm 270 5 G 10 87° 37% - - 58° 88.1° 62.1° - - -
6/26 3:10pm 262 5 G 9 86° 40% - - 59° 88.1° 62.1° - - -
6/26 3:00pm 271 5 G 9 86° 42% - - 60° 88.1° 62.1° - - -
6/26 2:50pm 272 6 G 12 86° 42% - - 60° 88.1° 62.1° - - -
6/26 2:40pm 277 6 G 9 87° 40% - - 60° 88.1° 62.1° - - -
6/26 2:30pm 284 6 G 9 87° 41% - - 60° 88.1° 62.1° - - -
6/26 2:20pm 282 6 G 10 87° 40% - - 60° 88.1° 62.1° - - -
6/26 2:10pm 260 4 G 8 87° 41% - - 60° 88° 62.1° - - -
6/26 2:00pm 265 4 G 9 86° 42% - - 60° 87.2° 62.1° - - -
6/26 1:50pm 257 4 G 10 86° 44% - - 62° 87.1° 62.1° - - -
6/26 1:40pm 264 5 G 10 85° 48% - - 63° 86.8° 62.1° - - -
6/26 1:30pm 255 4 G 9 85° 49% - - 64° 86.8° 62.1° - - -
6/26 1:20pm 267 5 G 11 85° 50% - - 64° 86.8° 62.1° - - -
6/26 1:10pm 271 6 G 10 84° 51% - - 64° 86.8° 62.1° - - -
6/26 1:00pm 265 6 G 12 84° 51% - - 64° 86.8° 62.1° - - -
6/26 12:50pm 274 8 G 12 85° 49% - - 64° 86.8° 62.1° - - -
6/26 12:40pm 270 6 G 11 86° 48% - - 64° 86.8° 62.1° - - -
6/26 12:30pm 246 5 G 10 86° 48% - - 64° 86.7° 62.1° - - -
6/26 12:20pm 258 6 G 12 85° 49% - - 63° 86.1° 62.1° - - -
6/26 12:10pm 251 5 G 11 84° 49% - - 63° 86° 62.1° - - -
6/26 12:00pm 259 6 G 12 84° 50% - - 63° 86° 62.1° - - -
6/26 11:50am 262 6 G 11 84° 50% - - 63° 86° 62.1° - - -
6/26 11:40am 259 6 G 11 84° 50% - - 63° 86° 62.1° - - -
6/26 11:30am 255 5 G 11 84° 49% - - 63° 86° 62.1° - - -
6/26 11:20am 260 5 G 10 84° 50% - - 63° 86° 62.1° - - -
6/26 11:10am 257 6 G 12 84° 51% - - 64° 86° 62.1° - - -
6/26 11:00am 246 6 G 11 84° 51% - - 64° 86° 62.1° - - -
6/26 10:50am 259 6 G 12 84° 50% - - 64° 86° 62.1° - - -
6/26 10:40am 263 5 G 10 85° 48% - - 63° 86° 62.1° - - -
6/26 10:30am 257 5 G 10 85° 48% - - 63° 86° 62.1° - - -
6/26 10:20am 263 4 G 8 85° 48% - - 63° 86° 62.1° - - -
6/26 10:10am 271 5 G 10 85° 50% - - 64° 85.4° 62.1° - - -
6/26 10:00am 280 4 G 7 84° 51% - - 64° 84.3° 62.1° - - -
6/26 9:50am 274 4 G 6 83° 51% - - 63° 84° 62.1° - - -
6/26 9:40am 271 3 G 6 83° 52% - - 63° 83.9° 62.1° - - -
6/26 9:30am 282 3 G 5 82° 53% - - 63° 83.1° 62.1° - - -
6/26 9:20am 256 2 G 5 82° 53% - - 63° 82.8° 62.1° - - -
6/26 9:10am 271 2 G 4 82° 52% - - 63° 82.6° 62.1° - - -
6/26 9:00am 246 1 G 4 82° 51% - - 62° 82.4° 62.1° - - -
6/26 8:50am 253 2 G 4 81° 50% - - 60° 81.7° 62.1° - - -
6/26 8:40am 240 1 G 4 80° 51% - - 60° 81.7° 62.1° - - -
6/26 8:30am 240 1 G 4 80° 50% - - 60° 81.7° 62.1° - - -
6/26 8:20am 24 1 G 3 81° 49% - - 60° 81.7° 62.1° - - -
6/26 8:10am 76 0 G 2 81° 50% - - 60° 81.7° 62.1° - - -
6/26 8:00am 140 0 G 2 79° 53% - - 60° 80.3° 62.1° - - -
6/26 7:50am 143 1 G 2 78° 54% - - 60° 78.7° 62.1° - - -
6/26 7:40am 165 0 G 1 76° 57% - - 60° 77.7° 62.1° - - -
6/26 7:30am 99 0 G 1 74° 61% - - 60° 75.7° 62.1° - - -
6/26 7:20am 173 0 G 2 73° 62% - - 59° 74.1° 62.1° - - -
6/26 7:10am 67 1 G 3 71° 65% - - 59° 72.6° 62.1° - - -
6/26 7:00am 76 2 G 3 70° 66% - - 58° 71.1° 62.1° - - -
6/26 6:50am 113 0 G 2 68° 68% - - 57° 69.8° 62.1° - - -
6/26 6:40am 188 1 G 2 66° 72% - - 57° 68.3° 62.1° - - -
6/26 6:30am 192 1 G 2 65° 75% - - 57° 68.3° 62.1° - - -
6/26 6:20am 282 0 G 2 64° 79% - - 57° 68.3° 62.1° - - -
6/26 6:10am 267 0 G 2 63° 80% - - 57° 68.3° 62.1° - - -
6/26 6:00am 89 0 G 1 63° 82% - - 57° 68.3° 62.1° - - -